Time;durP1;ratioP1;P1;durP2;ratioP2;P2;SDS_P1;SDS_P2;PMS_P1;PMS_P2;Temp;Humidity;BMP_temperature;BMP_pressure;BME280_temperature;BME280_humidity;BME280_pressure;Samples;Min_cycle;Max_cycle;Signal;HPM_P1;HPM_P2
2023/12/24 00:01:47;;;;;;;9.10;6.60;;;4.30;99.90;;;;;;5110980;28;20184;-53
2023/12/24 00:04:13;;;;;;;12.00;7.47;;;4.30;99.90;;;;;;5111022;28;20210;-53
2023/12/24 00:06:38;;;;;;;8.80;5.77;;;4.30;99.90;;;;;;5111309;28;20239;-54
2023/12/24 00:09:04;;;;;;;6.90;5.20;;;4.40;99.90;;;;;;5111802;28;20180;-53
2023/12/24 00:11:31;;;;;;;7.00;5.40;;;4.40;99.90;;;;;;5112082;28;20208;-53
2023/12/24 00:13:56;;;;;;;7.83;6.20;;;4.30;99.90;;;;;;5111062;28;20188;-52
2023/12/24 00:16:22;;;;;;;7.93;5.80;;;4.30;99.90;;;;;;5111301;28;20914;-53
2023/12/24 00:18:47;;;;;;;8.17;5.90;;;4.30;99.90;;;;;;5111412;28;20215;-53
2023/12/24 00:21:13;;;;;;;7.47;6.47;;;4.30;99.90;;;;;;5111486;28;20730;-53
2023/12/24 00:23:39;;;;;;;7.47;5.53;;;4.30;99.90;;;;;;5111286;28;20186;-53
2023/12/24 00:26:05;;;;;;;7.23;6.47;;;4.30;99.90;;;;;;5092244;28;20183;-53
2023/12/24 00:28:30;;;;;;;5.43;4.53;;;4.40;99.90;;;;;;5110848;28;20183;-53
2023/12/24 00:30:56;;;;;;;6.40;4.90;;;4.40;99.90;;;;;;5111736;28;20580;-52
2023/12/24 00:33:21;;;;;;;5.73;5.00;;;4.40;99.90;;;;;;5110177;28;20204;-53
2023/12/24 00:35:47;;;;;;;9.17;5.33;;;4.40;99.90;;;;;;5110737;28;20191;-53
2023/12/24 00:38:13;;;;;;;11.03;5.13;;;4.40;99.90;;;;;;5110837;28;20189;-53
2023/12/24 00:40:38;;;;;;;6.63;5.00;;;4.40;99.90;;;;;;5111603;28;20449;-53
2023/12/24 00:43:04;;;;;;;7.37;4.90;;;4.40;99.90;;;;;;5111297;28;20176;-53
2023/12/24 00:45:29;;;;;;;8.60;5.53;;;4.40;99.90;;;;;;5110751;28;20268;-53
2023/12/24 00:47:55;;;;;;;7.70;5.70;;;4.40;99.90;;;;;;5110055;28;20215;-53
2023/12/24 00:50:21;;;;;;;6.40;5.43;;;4.40;99.90;;;;;;5112254;28;20214;-53
2023/12/24 00:52:47;;;;;;;9.73;6.97;;;4.40;99.90;;;;;;5111803;28;20458;-53
2023/12/24 00:55:12;;;;;;;8.13;6.10;;;4.50;99.90;;;;;;5109505;28;20190;-53
2023/12/24 00:57:38;;;;;;;10.17;6.40;;;4.40;99.90;;;;;;5111694;28;20175;-53
2023/12/24 01:00:07;;;;;;;7.73;6.60;;;4.40;99.90;;;;;;5110505;28;20339;-53
2023/12/24 01:02:33;;;;;;;9.00;5.77;;;4.40;99.90;;;;;;5110930;28;20229;-53
2023/12/24 01:04:58;;;;;;;9.83;6.47;;;4.40;99.90;;;;;;5110841;28;20509;-52
2023/12/24 01:07:24;;;;;;;10.80;7.50;;;4.50;99.90;;;;;;5110182;28;20238;-53
2023/12/24 01:09:50;;;;;;;10.60;8.20;;;4.50;99.90;;;;;;5110052;28;20173;-53
2023/12/24 01:12:16;;;;;;;13.27;9.57;;;4.50;99.90;;;;;;5111724;28;20177;-53
2023/12/24 01:14:41;;;;;;;12.77;9.33;;;4.60;99.90;;;;;;5111171;28;20183;-52
2023/12/24 01:17:07;;;;;;;13.90;9.27;;;4.60;99.90;;;;;;5110376;28;20414;-53
2023/12/24 01:19:33;;;;;;;15.50;9.33;;;4.60;99.90;;;;;;5110323;28;20230;-53
2023/12/24 01:21:58;;;;;;;16.43;10.40;;;4.60;99.90;;;;;;5110652;28;20191;-52
2023/12/24 01:24:24;;;;;;;16.73;10.10;;;4.70;99.90;;;;;;5110270;28;20195;-53
2023/12/24 01:26:50;;;;;;;15.03;10.40;;;4.70;99.90;;;;;;5111039;28;20210;-53
2023/12/24 01:29:15;;;;;;;21.03;11.30;;;4.80;99.90;;;;;;5110208;28;20752;-53
2023/12/24 01:31:41;;;;;;;17.97;11.30;;;4.70;99.90;;;;;;5110698;28;20284;-53
2023/12/24 01:34:06;;;;;;;17.97;11.50;;;4.80;99.90;;;;;;5109363;28;20201;-53
2023/12/24 01:36:32;;;;;;;18.93;11.23;;;4.80;99.90;;;;;;5111833;28;20176;-53
2023/12/24 01:38:57;;;;;;;20.10;12.63;;;4.90;99.90;;;;;;5110630;28;20182;-52
2023/12/24 01:41:23;;;;;;;17.97;11.10;;;4.90;99.90;;;;;;5091744;28;20200;-53
2023/12/24 01:43:49;;;;;;;17.93;11.43;;;4.90;99.90;;;;;;5109770;28;20177;-52
2023/12/24 01:46:20;;;;;;;16.50;10.87;;;5.00;99.90;;;;;;5112335;28;20184;-53
2023/12/24 01:48:48;;;;;;;16.33;9.47;;;5.10;99.90;;;;;;5114585;28;20268;-53
2023/12/24 01:51:15;;;;;;;11.37;7.60;;;5.30;99.90;;;;;;5113881;28;20561;-53
2023/12/24 01:53:42;;;;;;;10.13;6.47;;;5.40;99.90;;;;;;5113070;28;20493;-52
2023/12/24 01:56:07;;;;;;;10.43;6.33;;;5.60;99.90;;;;;;5114304;28;20416;-53
2023/12/24 01:58:33;;;;;;;8.07;5.50;;;5.90;99.90;;;;;;5113938;28;20425;-53
2023/12/24 02:00:59;;;;;;;6.67;4.73;;;6.20;99.90;;;;;;5114970;28;20213;-52
2023/12/24 02:03:24;;;;;;;4.60;3.60;;;6.50;99.90;;;;;;5114380;28;20178;-53
2023/12/24 02:05:50;;;;;;;3.60;3.03;;;6.70;99.90;;;;;;5112836;28;20512;-52
2023/12/24 02:08:21;;;;;;;2.77;2.53;;;6.90;99.90;;;;;;5113244;28;20272;-53
2023/12/24 02:10:50;;;;;;;2.63;2.20;;;7.10;99.90;;;;;;5113803;28;20409;-53
2023/12/24 02:13:16;;;;;;;1.70;1.60;;;7.30;99.90;;;;;;5113442;28;20432;-52
2023/12/24 02:15:45;;;;;;;1.73;1.40;;;7.50;99.90;;;;;;5113006;28;20410;-53
2023/12/24 02:18:11;;;;;;;1.80;1.70;;;7.70;99.90;;;;;;5113927;28;20912;-53
2023/12/24 02:20:36;;;;;;;1.30;1.20;;;7.80;99.90;;;;;;5113293;28;20461;-53
2023/12/24 02:23:02;;;;;;;1.13;1.00;;;7.90;99.90;;;;;;5114075;28;20417;-52
2023/12/24 02:25:28;;;;;;;1.53;1.33;;;8.00;99.90;;;;;;5113274;28;20226;-52
2023/12/24 02:28:19;;;;;;;1.30;1.20;;;8.00;99.90;;;;;;5113340;28;20255;-53
2023/12/24 02:30:51;;;;;;;0.90;0.90;;;8.10;99.90;;;;;;5112844;28;20200;-52
2023/12/24 02:33:24;;;;;;;0.80;0.80;;;8.20;99.90;;;;;;5113267;28;20448;-52
2023/12/24 02:35:51;;;;;;;1.70;0.93;;;8.20;99.90;;;;;;5113367;28;20765;-52
2023/12/24 02:38:16;;;;;;;0.87;0.77;;;8.20;99.90;;;;;;5112723;28;20983;-52
2023/12/24 02:40:42;;;;;;;1.00;0.87;;;8.20;99.90;;;;;;5113187;28;20466;-53
2023/12/24 02:43:08;;;;;;;0.80;0.80;;;8.20;99.90;;;;;;5112584;28;20188;-53
2023/12/24 02:45:34;;;;;;;0.63;0.63;;;8.40;99.90;;;;;;5112493;28;20188;-53
2023/12/24 02:48:00;;;;;;;0.80;0.80;;;8.30;99.90;;;;;;5113873;28;20410;-53
2023/12/24 02:50:26;;;;;;;1.10;0.70;;;8.30;99.90;;;;;;5113544;28;21176;-51
2023/12/24 02:52:51;;;;;;;0.80;0.80;;;8.40;99.90;;;;;;5113211;28;20706;-53
2023/12/24 02:55:17;;;;;;;0.70;0.70;;;8.40;99.90;;;;;;5110487;28;20177;-53
2023/12/24 02:57:43;;;;;;;0.77;0.77;;;8.40;99.90;;;;;;5112394;28;20271;-53
2023/12/24 03:00:09;;;;;;;0.80;0.70;;;8.40;99.90;;;;;;5113403;28;20204;-52
2023/12/24 03:02:35;;;;;;;0.70;0.70;;;8.40;99.90;;;;;;5113268;28;20185;-52
2023/12/24 03:05:01;;;;;;;0.73;0.67;;;8.50;99.90;;;;;;5112420;28;20429;-52
2023/12/24 03:07:28;;;;;;;0.80;0.70;;;8.50;99.90;;;;;;5111810;28;20236;-52
2023/12/24 03:09:54;;;;;;;0.70;0.70;;;8.40;99.90;;;;;;5112831;28;20425;-53
2023/12/24 03:12:19;;;;;;;1.43;0.70;;;8.40;99.90;;;;;;5113015;28;20464;-52
2023/12/24 03:14:45;;;;;;;0.73;0.73;;;8.40;99.90;;;;;;5112709;28;20180;-53
2023/12/24 03:17:10;;;;;;;0.87;0.87;;;8.40;99.90;;;;;;5111649;28;20223;-53
2023/12/24 03:19:36;;;;;;;1.10;0.70;;;8.40;99.90;;;;;;5111857;28;20205;-53
2023/12/24 03:22:02;;;;;;;1.47;0.80;;;8.50;99.90;;;;;;5112337;28;20229;-52
2023/12/24 03:24:28;;;;;;;0.70;0.67;;;8.50;99.90;;;;;;5111937;28;20188;-52
2023/12/24 03:26:54;;;;;;;0.80;0.70;;;8.50;99.90;;;;;;5113280;28;20410;-52
2023/12/24 03:29:19;;;;;;;0.83;0.80;;;8.50;99.90;;;;;;5111856;28;20583;-53
2023/12/24 03:31:45;;;;;;;1.10;0.80;;;8.60;99.90;;;;;;5112382;28;20184;-53
2023/12/24 03:34:11;;;;;;;1.00;1.00;;;8.60;99.90;;;;;;5111912;28;20193;-52
2023/12/24 03:36:36;;;;;;;1.13;0.90;;;8.60;99.90;;;;;;5112463;28;20622;-53
2023/12/24 03:39:02;;;;;;;1.17;0.90;;;8.60;99.90;;;;;;5111493;28;20176;-53
2023/12/24 03:41:27;;;;;;;1.00;1.00;;;8.60;99.90;;;;;;5111248;28;20192;-52
2023/12/24 03:43:53;;;;;;;1.87;1.00;;;8.60;99.90;;;;;;5113475;28;20181;-53
2023/12/24 03:46:19;;;;;;;0.83;0.80;;;8.60;99.90;;;;;;5111058;28;20176;-52
2023/12/24 03:48:45;;;;;;;0.70;0.70;;;8.60;99.90;;;;;;5111107;28;20646;-53
2023/12/24 03:51:11;;;;;;;1.20;1.00;;;8.60;99.90;;;;;;5112117;28;20419;-52
2023/12/24 03:53:37;;;;;;;0.80;0.77;;;8.60;99.90;;;;;;5111872;28;20211;-53
2023/12/24 03:56:03;;;;;;;1.23;0.93;;;8.60;99.90;;;;;;5111134;28;20415;-52
2023/12/24 03:58:29;;;;;;;0.80;0.80;;;8.60;99.90;;;;;;5111237;28;20436;-53
2023/12/24 04:00:55;;;;;;;1.03;1.00;;;8.60;99.90;;;;;;5111889;28;20465;-52
2023/12/24 04:03:21;;;;;;;1.37;1.17;;;8.60;99.90;;;;;;5112423;28;20184;-52
2023/12/24 04:05:46;;;;;;;5.17;1.13;;;8.60;99.90;;;;;;5111557;28;20238;-52
2023/12/24 04:08:12;;;;;;;1.47;1.10;;;8.60;99.90;;;;;;5110793;28;20236;-52
2023/12/24 04:10:39;;;;;;;1.10;0.97;;;8.60;99.90;;;;;;5110869;28;20670;-52
2023/12/24 04:13:06;;;;;;;2.57;1.00;;;8.60;99.90;;;;;;5111432;28;20184;-53
2023/12/24 04:15:31;;;;;;;1.00;1.00;;;8.60;99.90;;;;;;5111593;28;20433;-52
2023/12/24 04:17:57;;;;;;;0.90;0.90;;;8.70;99.90;;;;;;5110979;28;20410;-52
2023/12/24 04:20:22;;;;;;;1.93;1.10;;;8.60;99.90;;;;;;5110082;28;20246;-53
2023/12/24 04:22:48;;;;;;;1.10;1.00;;;8.70;99.90;;;;;;5111632;28;20589;-52
2023/12/24 04:25:13;;;;;;;0.90;0.90;;;8.70;99.90;;;;;;5110779;28;20181;-52
2023/12/24 04:27:39;;;;;;;1.10;0.87;;;8.70;99.90;;;;;;5112613;28;20184;-53
2023/12/24 04:30:06;;;;;;;1.33;0.80;;;8.70;99.90;;;;;;5110246;28;20215;-52
2023/12/24 04:32:31;;;;;;;1.10;0.93;;;8.70;99.90;;;;;;5109929;28;20177;-52
2023/12/24 04:34:57;;;;;;;1.07;0.97;;;8.70;99.90;;;;;;5111587;28;20413;-50
2023/12/24 04:37:22;;;;;;;1.57;1.20;;;8.70;99.90;;;;;;5111722;28;20181;-52
2023/12/24 04:39:48;;;;;;;0.90;0.90;;;8.70;99.90;;;;;;5110546;28;20215;-51
2023/12/24 04:42:13;;;;;;;1.10;1.00;;;8.70;99.90;;;;;;5111948;28;20192;-51
2023/12/24 04:44:39;;;;;;;0.87;0.87;;;8.70;99.90;;;;;;5111001;28;20585;-52
2023/12/24 04:47:06;;;;;;;1.20;1.10;;;8.70;99.90;;;;;;5111349;28;20207;-52
2023/12/24 04:49:32;;;;;;;1.33;0.80;;;8.70;99.90;;;;;;5109959;28;20271;-52
2023/12/24 04:51:59;;;;;;;0.90;0.90;;;8.70;99.90;;;;;;5111075;28;20505;-52
2023/12/24 04:54:28;;;;;;;1.20;1.00;;;8.70;99.90;;;;;;5111473;28;20181;-52
2023/12/24 04:56:53;;;;;;;1.33;1.23;;;8.60;99.90;;;;;;5111527;28;20423;-51
2023/12/24 04:59:19;;;;;;;1.67;1.40;;;8.70;99.90;;;;;;5108984;28;20407;-52
2023/12/24 05:01:44;;;;;;;1.23;1.13;;;8.70;99.90;;;;;;5110927;28;20181;-52
2023/12/24 05:04:10;;;;;;;1.10;1.00;;;8.70;99.90;;;;;;5111952;28;20177;-51
2023/12/24 05:06:35;;;;;;;1.50;1.40;;;8.80;99.90;;;;;;5110292;28;20233;-52
2023/12/24 05:09:01;;;;;;;1.53;1.20;;;8.80;99.90;;;;;;5110426;28;20618;-52
2023/12/24 05:11:27;;;;;;;1.40;1.30;;;8.70;99.90;;;;;;5109972;28;20184;-50
2023/12/24 05:13:52;;;;;;;3.77;1.20;;;8.70;99.90;;;;;;5111876;28;20188;-52
2023/12/24 05:16:18;;;;;;;1.33;1.23;;;8.70;99.90;;;;;;5110346;28;20185;-52
2023/12/24 05:18:44;;;;;;;1.27;1.17;;;8.70;99.90;;;;;;5110305;28;20188;-51
2023/12/24 05:21:09;;;;;;;2.97;1.30;;;8.70;99.90;;;;;;5111686;28;20204;-52
2023/12/24 05:23:35;;;;;;;2.00;1.20;;;8.70;99.90;;;;;;5114731;28;20418;-51
2023/12/24 05:26:01;;;;;;;1.50;1.40;;;8.70;99.90;;;;;;5113794;28;20187;-52
2023/12/24 05:28:26;;;;;;;1.30;1.20;;;8.80;99.90;;;;;;5114718;28;20524;-51
2023/12/24 05:30:52;;;;;;;1.37;1.27;;;8.70;99.90;;;;;;5114641;28;20172;-53
2023/12/24 05:33:17;;;;;;;1.43;1.33;;;8.70;99.90;;;;;;5113624;28;20173;-52
2023/12/24 05:35:43;;;;;;;2.10;1.40;;;8.70;99.90;;;;;;5115182;28;20189;-52
2023/12/24 05:38:08;;;;;;;1.50;1.40;;;8.70;99.90;;;;;;5114019;28;20177;-52
2023/12/24 05:40:34;;;;;;;2.70;1.13;;;8.70;99.90;;;;;;5114746;28;20288;-51
2023/12/24 05:43:00;;;;;;;1.50;1.40;;;8.70;99.90;;;;;;5114885;28;20185;-52
2023/12/24 05:45:25;;;;;;;1.60;1.13;;;8.80;99.90;;;;;;5113961;28;20177;-53
2023/12/24 05:47:51;;;;;;;1.37;1.27;;;8.80;99.90;;;;;;5114163;28;20642;-52
2023/12/24 05:50:16;;;;;;;1.27;1.17;;;8.80;99.90;;;;;;5114544;28;20684;-52
2023/12/24 05:52:42;;;;;;;4.00;1.30;;;8.80;99.90;;;;;;5114202;28;20723;-52
2023/12/24 05:55:09;;;;;;;1.07;0.97;;;8.80;99.90;;;;;;5114133;28;20515;-52
2023/12/24 05:57:35;;;;;;;0.83;0.83;;;8.80;99.90;;;;;;5113969;28;20208;-51
2023/12/24 06:00:01;;;;;;;1.20;1.10;;;8.80;99.90;;;;;;5113767;28;20545;-52
2023/12/24 06:02:26;;;;;;;1.20;1.10;;;8.80;99.90;;;;;;5113913;28;20725;-51
2023/12/24 06:04:52;;;;;;;1.30;1.20;;;8.80;99.90;;;;;;5113449;28;20176;-52
2023/12/24 06:07:17;;;;;;;1.10;1.00;;;8.80;99.90;;;;;;5113144;28;20287;-52
2023/12/24 06:09:43;;;;;;;1.00;0.90;;;8.80;99.90;;;;;;5113733;28;20287;-52
2023/12/24 06:12:08;;;;;;;1.10;1.00;;;8.80;99.90;;;;;;5113988;28;20177;-52
2023/12/24 06:14:34;;;;;;;0.87;0.87;;;8.80;99.90;;;;;;5113622;28;20188;-52
2023/12/24 06:17:00;;;;;;;0.83;0.83;;;8.80;99.90;;;;;;5114383;28;20196;-52
2023/12/24 06:19:25;;;;;;;1.03;1.00;;;8.80;99.90;;;;;;5112868;28;20180;-52
2023/12/24 06:21:51;;;;;;;0.93;0.93;;;8.80;99.90;;;;;;5113282;28;20267;-52
2023/12/24 06:24:21;;;;;;;1.20;1.20;;;8.80;99.90;;;;;;5113432;28;20266;-52
2023/12/24 06:26:49;;;;;;;1.10;1.10;;;8.80;99.90;;;;;;5114418;28;20189;-52
2023/12/24 06:29:15;;;;;;;1.07;1.07;;;8.80;99.90;;;;;;5114085;28;20547;-52
2023/12/24 06:31:41;;;;;;;0.90;0.90;;;8.80;99.90;;;;;;5112137;28;20512;-52
2023/12/24 06:34:06;;;;;;;1.00;1.00;;;8.90;99.90;;;;;;5095208;28;20180;-52
2023/12/24 06:36:32;;;;;;;0.90;0.90;;;8.90;99.90;;;;;;5112939;28;20183;-52
2023/12/24 06:38:57;;;;;;;0.90;0.90;;;8.90;99.90;;;;;;5114003;28;20279;-52
2023/12/24 06:41:23;;;;;;;1.00;1.00;;;8.90;99.90;;;;;;5112816;28;20223;-52
2023/12/24 06:43:49;;;;;;;1.10;0.90;;;8.90;99.90;;;;;;5113687;28;20192;-52
2023/12/24 06:46:15;;;;;;;0.80;0.80;;;8.90;99.90;;;;;;5112575;28;20230;-52
2023/12/24 06:48:41;;;;;;;1.00;0.90;;;8.90;99.90;;;;;;5112848;28;20183;-52
2023/12/24 06:51:07;;;;;;;1.10;1.00;;;8.90;99.90;;;;;;5112505;28;20808;-52
2023/12/24 06:53:33;;;;;;;1.00;1.00;;;8.90;99.90;;;;;;5113292;28;20176;-52
2023/12/24 06:55:58;;;;;;;1.20;1.10;;;8.90;99.90;;;;;;5112484;28;20211;-51
2023/12/24 06:58:24;;;;;;;1.37;1.27;;;8.90;99.90;;;;;;5113800;28;20219;-52
2023/12/24 07:00:49;;;;;;;1.20;1.10;;;8.90;99.90;;;;;;5093474;28;20257;-52
2023/12/24 07:03:15;;;;;;;1.13;1.03;;;9.00;99.90;;;;;;5112988;28;20187;-52
2023/12/24 07:05:41;;;;;;;1.20;1.10;;;9.00;99.90;;;;;;5112218;28;20271;-52
2023/12/24 07:08:08;;;;;;;1.20;1.10;;;8.90;99.90;;;;;;5111913;28;20617;-52
2023/12/24 07:10:36;;;;;;;1.33;1.23;;;9.00;99.90;;;;;;5113268;28;20422;-52
2023/12/24 07:13:01;;;;;;;1.20;1.10;;;9.00;99.90;;;;;;5112868;28;20418;-52
2023/12/24 07:15:27;;;;;;;1.60;1.23;;;9.00;99.90;;;;;;5112290;28;20430;-51
2023/12/24 07:17:52;;;;;;;1.40;1.20;;;9.00;99.90;;;;;;5112240;28;20184;-52
2023/12/24 07:20:18;;;;;;;1.10;1.10;;;9.00;99.90;;;;;;5112023;28;20201;-52
2023/12/24 07:22:44;;;;;;;1.30;1.20;;;9.00;99.90;;;;;;5112473;28;20627;-52
2023/12/24 07:25:10;;;;;;;1.23;1.13;;;9.00;99.90;;;;;;5112419;28;20258;-52
2023/12/24 07:27:36;;;;;;;1.20;1.10;;;9.00;99.90;;;;;;5111662;28;20181;-51
2023/12/24 07:30:02;;;;;;;1.10;1.10;;;9.10;99.90;;;;;;5112732;28;20422;-52
2023/12/24 07:32:27;;;;;;;1.70;1.60;;;9.10;99.90;;;;;;5111347;28;20530;-51
2023/12/24 07:34:55;;;;;;;1.47;1.37;;;9.10;99.90;;;;;;5093673;28;20184;-51
2023/12/24 07:37:21;;;;;;;1.27;1.20;;;9.10;99.90;;;;;;5112482;28;20187;-51
2023/12/24 07:39:46;;;;;;;2.60;1.53;;;9.10;99.90;;;;;;5112620;28;20459;-51
2023/12/24 07:42:12;;;;;;;1.27;1.17;;;9.10;99.90;;;;;;5111789;28;20661;-50
2023/12/24 07:44:37;;;;;;;1.50;1.40;;;9.10;99.90;;;;;;5110800;28;20534;-52
2023/12/24 07:47:03;;;;;;;3.00;1.67;;;9.10;99.90;;;;;;5111803;28;20199;-51
2023/12/24 07:49:28;;;;;;;1.50;1.40;;;9.10;99.90;;;;;;5112255;28;20180;-50
2023/12/24 07:51:54;;;;;;;1.60;1.50;;;9.10;99.90;;;;;;5112071;28;20185;-51
2023/12/24 07:54:20;;;;;;;1.50;1.40;;;9.10;99.90;;;;;;5111759;28;20169;-50
2023/12/24 07:56:45;;;;;;;1.43;1.33;;;9.10;99.90;;;;;;5111796;28;20199;-51
2023/12/24 07:59:11;;;;;;;1.60;1.50;;;9.20;99.90;;;;;;5110806;28;20181;-51
2023/12/24 08:01:39;;;;;;;1.30;1.20;;;9.20;99.90;;;;;;5112084;28;20205;-50
2023/12/24 08:04:05;;;;;;;1.67;1.57;;;9.20;99.90;;;;;;5111947;28;20208;-50
2023/12/24 08:06:31;;;;;;;2.33;1.80;;;9.20;99.90;;;;;;5111586;28;20410;-50
2023/12/24 08:08:57;;;;;;;1.60;1.50;;;9.20;99.90;;;;;;5111268;28;20892;-51
2023/12/24 08:11:24;;;;;;;1.60;1.50;;;9.20;99.90;;;;;;5111408;28;20274;-51
2023/12/24 08:13:49;;;;;;;1.70;1.60;;;9.20;99.90;;;;;;5112700;28;20463;-50
2023/12/24 08:16:15;;;;;;;1.50;1.40;;;9.30;99.90;;;;;;5111900;28;20418;-50
2023/12/24 08:18:40;;;;;;;1.40;1.30;;;9.30;99.90;;;;;;5111244;28;20677;-49
2023/12/24 08:21:07;;;;;;;1.53;1.43;;;9.30;99.90;;;;;;5110199;28;20694;-50
2023/12/24 08:23:33;;;;;;;3.40;1.30;;;9.20;99.90;;;;;;5111322;28;20192;-49
2023/12/24 08:25:58;;;;;;;1.70;1.60;;;9.30;99.90;;;;;;5111828;28;21057;-51
2023/12/24 08:28:24;;;;;;;1.93;1.73;;;9.20;99.90;;;;;;5111116;28;20210;-51
2023/12/24 08:30:49;;;;;;;1.30;1.20;;;9.30;99.90;;;;;;5111945;28;20188;-51
2023/12/24 08:33:15;;;;;;;1.37;1.27;;;9.30;99.90;;;;;;5109906;28;20555;-51
2023/12/24 08:35:40;;;;;;;3.93;1.50;;;9.30;99.90;;;;;;5111246;28;20230;-52
2023/12/24 08:38:06;;;;;;;2.40;1.43;;;9.40;99.90;;;;;;5111605;28;20188;-50
2023/12/24 08:40:32;;;;;;;1.53;1.43;;;9.40;99.90;;;;;;5109997;28;20208;-51
2023/12/24 08:42:57;;;;;;;1.53;1.40;;;9.40;99.90;;;;;;5110718;28;20176;-51
2023/12/24 08:45:23;;;;;;;1.33;1.23;;;9.40;99.90;;;;;;5111976;28;20177;-51
2023/12/24 08:47:49;;;;;;;1.47;1.37;;;9.40;99.90;;;;;;5110451;28;20524;-51
2023/12/24 08:50:14;;;;;;;1.57;1.47;;;9.40;99.90;;;;;;5111058;28;20184;-51
2023/12/24 08:52:40;;;;;;;1.50;1.40;;;9.40;99.90;;;;;;5111074;28;20180;-51
2023/12/24 08:55:08;;;;;;;1.63;1.53;;;9.50;99.90;;;;;;5110715;28;20265;-51
2023/12/24 08:57:34;;;;;;;1.40;1.30;;;9.50;99.90;;;;;;5114039;28;20658;-51
2023/12/24 09:00:00;;;;;;;1.40;1.30;;;9.50;99.90;;;;;;5115429;28;20460;-51
2023/12/24 09:02:25;;;;;;;1.73;1.63;;;9.50;99.90;;;;;;5116248;28;20457;-52
2023/12/24 09:04:51;;;;;;;1.50;1.40;;;9.50;99.90;;;;;;5113812;28;20653;-51
2023/12/24 09:07:17;;;;;;;1.37;1.27;;;9.50;99.90;;;;;;5115320;28;20705;-52
2023/12/24 09:09:43;;;;;;;1.30;1.20;;;9.50;99.90;;;;;;5114632;28;20216;-51
2023/12/24 09:12:08;;;;;;;1.30;1.20;;;9.50;99.90;;;;;;5114773;28;20417;-51
2023/12/24 09:14:34;;;;;;;1.17;1.10;;;9.50;99.90;;;;;;5114193;28;20437;-51
2023/12/24 09:17:00;;;;;;;1.50;1.40;;;9.60;99.90;;;;;;5115383;28;20188;-51
2023/12/24 09:19:25;;;;;;;1.30;1.20;;;9.60;99.90;;;;;;5115131;28;20184;-51
2023/12/24 09:21:51;;;;;;;1.83;1.40;;;9.60;99.90;;;;;;5115320;28;20189;-51
2023/12/24 09:24:16;;;;;;;1.20;1.10;;;9.60;99.90;;;;;;5114768;28;20177;-51
2023/12/24 09:26:42;;;;;;;1.47;1.37;;;9.60;99.90;;;;;;5114236;28;20169;-51
2023/12/24 09:29:10;;;;;;;1.40;1.30;;;9.70;99.90;;;;;;5114417;28;20177;-51
2023/12/24 09:31:35;;;;;;;1.33;1.23;;;9.60;99.90;;;;;;5114533;28;20211;-51
2023/12/24 09:34:01;;;;;;;1.50;1.40;;;9.70;99.90;;;;;;5114586;28;20450;-51
2023/12/24 09:36:26;;;;;;;1.83;1.40;;;9.70;99.90;;;;;;5114730;28;20234;-51
2023/12/24 09:38:52;;;;;;;1.00;1.00;;;9.60;99.90;;;;;;5114633;28;20183;-51
2023/12/24 09:41:19;;;;;;;1.30;1.20;;;9.70;99.90;;;;;;5113103;28;20208;-50
2023/12/24 09:43:44;;;;;;;1.10;1.00;;;9.70;99.90;;;;;;5114539;28;20263;-51
2023/12/24 09:46:10;;;;;;;1.43;1.33;;;9.70;99.90;;;;;;5115258;28;20501;-51
2023/12/24 09:48:35;;;;;;;1.90;1.20;;;9.70;99.90;;;;;;5114297;28;20689;-51
2023/12/24 09:51:02;;;;;;;1.57;1.20;;;9.70;99.90;;;;;;5113688;28;20267;-51
2023/12/24 09:53:27;;;;;;;1.40;1.30;;;9.70;99.90;;;;;;5113244;28;20181;-51
2023/12/24 09:55:55;;;;;;;2.20;1.07;;;9.80;99.90;;;;;;5113731;28;20422;-51
2023/12/24 09:58:21;;;;;;;2.60;1.20;;;9.80;99.90;;;;;;5113505;28;20216;-51
2023/12/24 10:00:46;;;;;;;1.20;1.10;;;9.80;99.90;;;;;;5112652;28;20485;-52
2023/12/24 10:03:12;;;;;;;1.43;1.10;;;9.80;99.90;;;;;;5112467;28;20192;-51
2023/12/24 10:06:03;;;;;;;1.10;1.00;;;9.90;99.90;;;;;;5113524;28;20183;-51
2023/12/24 10:08:33;;;;;;;1.53;1.00;;;9.90;99.90;;;;;;5093782;28;20277;-51
2023/12/24 10:11:13;;;;;;;1.13;1.10;;;10.00;99.90;;;;;;5113824;28;20423;-51
2023/12/24 10:13:39;;;;;;;1.23;1.17;;;10.00;99.90;;;;;;5112671;28;20415;-52
2023/12/24 10:16:05;;;;;;;0.90;0.90;;;10.00;99.90;;;;;;5113254;28;20417;-53
2023/12/24 10:18:32;;;;;;;1.40;1.13;;;10.00;99.90;;;;;;5113774;28;20185;-51
2023/12/24 10:21:10;;;;;;;1.20;1.10;;;10.10;99.90;;;;;;5114144;28;20451;-51
2023/12/24 10:23:36;;;;;;;1.20;1.03;;;10.10;99.90;;;;;;5114039;28;20788;-51
2023/12/24 10:26:11;;;;;;;1.20;1.10;;;10.10;99.90;;;;;;5112834;28;20850;-51
2023/12/24 10:28:49;;;;;;;1.40;1.30;;;10.20;99.90;;;;;;5113308;28;20413;-51
2023/12/24 10:31:15;;;;;;;0.97;0.97;;;10.20;99.90;;;;;;5113907;28;20395;-51
2023/12/24 10:33:41;;;;;;;0.93;0.90;;;10.20;99.90;;;;;;5113302;28;20816;-52
2023/12/24 10:36:07;;;;;;;0.80;0.80;;;10.20;99.90;;;;;;5112758;28;20184;-52
2023/12/24 10:38:34;;;;;;;1.00;1.00;;;10.20;99.90;;;;;;5112548;28;20176;-51
2023/12/24 10:41:01;;;;;;;1.00;1.00;;;10.20;99.90;;;;;;5113883;28;20485;-51
2023/12/24 10:43:26;;;;;;;1.10;1.07;;;10.20;99.90;;;;;;5113303;28;20830;-51
2023/12/24 10:45:52;;;;;;;2.30;1.37;;;10.30;99.90;;;;;;5113362;28;20497;-52
2023/12/24 10:48:19;;;;;;;1.00;1.00;;;10.30;99.90;;;;;;5113265;28;20181;-51
2023/12/24 10:50:45;;;;;;;1.40;1.20;;;10.30;99.90;;;;;;5112694;28;20429;-51
2023/12/24 10:53:11;;;;;;;1.37;1.27;;;10.30;99.90;;;;;;5112187;28;20560;-51
2023/12/24 10:55:38;;;;;;;1.30;1.03;;;10.40;99.90;;;;;;5113787;28;20967;-51
2023/12/24 10:58:17;;;;;;;1.20;1.10;;;10.40;99.90;;;;;;5113301;28;20180;-51
2023/12/24 11:00:43;;;;;;;1.97;1.33;;;10.40;99.90;;;;;;5113162;28;20822;-50
2023/12/24 11:03:09;;;;;;;1.20;1.10;;;10.40;99.90;;;;;;5112850;28;20423;-51
2023/12/24 11:05:42;;;;;;;1.03;1.03;;;10.40;99.90;;;;;;5112094;28;20653;-51
2023/12/24 11:08:22;;;;;;;4.13;1.30;;;10.40;99.90;;;;;;5112108;28;20431;-51
2023/12/24 11:10:54;;;;;;;1.10;1.00;;;10.40;99.90;;;;;;5111849;28;20410;-51
2023/12/24 11:13:32;;;;;;;2.23;1.23;;;10.40;99.90;;;;;;5112171;28;20402;-51
2023/12/24 11:15:58;;;;;;;2.60;1.20;;;10.50;99.90;;;;;;5111964;28;20407;-50
2023/12/24 11:18:42;;;;;;;1.00;1.00;;;10.50;99.90;;;;;;5111318;28;20418;-51
2023/12/24 11:21:08;;;;;;;1.30;1.00;;;10.50;99.90;;;;;;5111117;28;20420;-51
2023/12/24 11:23:34;;;;;;;1.53;1.10;;;10.50;99.90;;;;;;5112398;28;20234;-51
2023/12/24 11:26:00;;;;;;;1.60;1.00;;;10.60;99.90;;;;;;5110373;28;21045;-51
2023/12/24 11:28:26;;;;;;;1.10;1.00;;;10.50;99.90;;;;;;5110685;28;20430;-50
2023/12/24 11:30:51;;;;;;;2.10;1.10;;;10.60;99.90;;;;;;5111741;28;20431;-50
2023/12/24 11:33:35;;;;;;;1.30;1.20;;;10.60;99.90;;;;;;5111149;28;20266;-50
2023/12/24 11:36:11;;;;;;;4.60;1.30;;;10.60;99.90;;;;;;5113165;28;20172;-50
2023/12/24 11:38:37;;;;;;;2.80;1.40;;;10.60;99.90;;;;;;5112340;28;20416;-50
2023/12/24 11:41:09;;;;;;;2.03;1.13;;;10.60;99.90;;;;;;5112058;28;21083;-50
2023/12/24 11:43:42;;;;;;;2.43;1.40;;;10.60;99.90;;;;;;5111343;28;20197;-50
2023/12/24 11:46:09;;;;;;;1.60;1.10;;;10.60;99.90;;;;;;5110550;28;20735;-50
2023/12/24 11:48:35;;;;;;;1.50;1.40;;;10.70;99.90;;;;;;5113023;28;20410;-50
2023/12/24 11:51:09;;;;;;;1.80;1.70;;;10.60;99.90;;;;;;5111585;28;20908;-52
2023/12/24 11:53:38;;;;;;;1.70;1.60;;;10.60;99.90;;;;;;5111817;28;20506;-55
2023/12/24 11:56:09;;;;;;;1.43;1.33;;;10.70;99.90;;;;;;5111164;28;20762;-52
2023/12/24 11:58:35;;;;;;;1.70;1.60;;;10.70;99.90;;;;;;5112044;28;20409;-51
2023/12/24 12:01:04;;;;;;;3.30;1.50;;;10.70;99.90;;;;;;5112001;28;20815;-49
2023/12/24 12:03:35;;;;;;;2.07;1.40;;;10.70;99.90;;;;;;5109992;28;21225;-50
2023/12/24 12:06:02;;;;;;;2.10;1.53;;;10.70;99.90;;;;;;5111687;28;20873;-50
2023/12/24 12:08:28;;;;;;;2.87;1.53;;;10.70;99.90;;;;;;5111318;28;20541;-50
2023/12/24 12:10:55;;;;;;;1.73;1.63;;;10.70;99.90;;;;;;5111160;28;20995;-50
2023/12/24 12:13:21;;;;;;;1.60;1.50;;;10.70;99.90;;;;;;5111717;28;20461;-50
2023/12/24 12:15:47;;;;;;;3.67;1.70;;;10.70;99.90;;;;;;5111448;28;20442;-51
2023/12/24 12:18:14;;;;;;;1.60;1.50;;;10.70;99.90;;;;;;5110723;28;20638;-51
2023/12/24 12:20:39;;;;;;;1.63;1.43;;;10.70;99.90;;;;;;5110318;28;20462;-50
2023/12/24 12:23:05;;;;;;;5.77;1.70;;;10.80;99.90;;;;;;5111779;28;20414;-51
2023/12/24 12:25:31;;;;;;;3.13;1.73;;;10.80;99.90;;;;;;5112387;28;20188;-50
2023/12/24 12:27:56;;;;;;;3.20;1.77;;;10.80;99.90;;;;;;5110799;28;20259;-50
2023/12/24 12:30:22;;;;;;;1.97;1.53;;;10.80;99.90;;;;;;5110728;28;20232;-51
2023/12/24 12:32:48;;;;;;;1.43;1.33;;;10.70;99.90;;;;;;5111219;28;20268;-50
2023/12/24 12:35:15;;;;;;;1.50;1.40;;;10.80;99.90;;;;;;5111083;28;20868;-51
2023/12/24 12:37:40;;;;;;;1.50;1.00;;;10.80;99.90;;;;;;5110689;28;20441;-51
2023/12/24 12:40:07;;;;;;;1.57;1.30;;;10.90;99.90;;;;;;5111254;28;20498;-51
2023/12/24 12:42:33;;;;;;;2.43;1.60;;;10.90;99.90;;;;;;5109265;28;20279;-50
2023/12/24 12:44:59;;;;;;;1.20;1.10;;;10.90;99.90;;;;;;5111579;28;20903;-50
2023/12/24 12:47:25;;;;;;;1.57;1.00;;;10.90;99.90;;;;;;5111349;28;20422;-51
2023/12/24 12:49:50;;;;;;;2.00;1.27;;;10.80;99.90;;;;;;5111026;28;20192;-51